Naxos, Greece
Current Conditions -  °F | °C
As of 6:50 AM on Thursday 18 Dec 2014 (Local Time) from LGPA Reporting Station
NA  
Wind Chill: 57°   Ceiling: NA
Heat Index: 57°   Visibility: NA
Dew Point: 54°   Wind: 5mph
Humidity: 88%   Direction: 30°NNE
Pressure: 29.97"   Gusts: NA
Location:  37.11°N, 25.38°E
Report Text: LGPA 180350Z AUTO 03004KT 240V180 //// // ////// 14/12 Q1015 RE//
Loading
Personal Weather Stations






























Interactive Weather Map New forecast layout! Learn more

10-Day Weather Forecast

Advertisements
Track Severe Weather on mobile